Time;durP1;ratioP1;P1;durP2;ratioP2;P2;SDS_P1;SDS_P2;PMS_P1;PMS_P2;Temp;Humidity;BMP_temperature;BMP_pressure;BME280_temperature;BME280_humidity;BME280_pressure;Samples;Min_cycle;Max_cycle;Signal;HPM_P1;HPM_P2
2021/07/20 00:00:33;;;;;;;;;;;;;;;;;;5000725;28;1273;-86
2021/07/20 00:03:02;;;;;;;;;;;;;;;;;;4999550;28;1558;-87
2021/07/20 00:05:27;;;;;;;;;;;;;;;;;;5002104;28;1120;-86
2021/07/20 00:07:54;;;;;;;;;;;;;;;;;;5000461;28;1405;-87
2021/07/20 00:10:27;;;;;;;;;;;;;;;;;;4984916;28;1600;-86
2021/07/20 00:12:52;;;;;;;;;;;;;;;;;;4983929;28;1966;-87
2021/07/20 00:15:17;;;;;;;;;;;;;;;;;;5003134;28;1095;-87
2021/07/20 00:17:42;;;;;;;;;;;;;;;;;;5003260;28;1436;-89
2021/07/20 00:20:08;;;;;;;;;;;;;;;;;;5000825;28;1654;-89
2021/07/20 00:22:34;;;;;;;;;;;;;;;;;;4998625;28;1464;-89
2021/07/20 00:24:59;;;;;;;;;;;;;;;;;;5003212;28;1591;-90
2021/07/20 00:27:24;;;;;;;;;;;;;;;;;;4999846;28;1130;-90
2021/07/20 00:29:49;;;;;;;;;;;;;;;;;;4999847;28;1528;-89
2021/07/20 00:32:14;;;;;;;;;;;;;;;;;;4998876;28;1907;-88
2021/07/20 00:34:40;;;;;;;;;;;;;;;;;;4997639;28;1559;-92
2021/07/20 00:37:05;;;;;;;;;;;;;;;;;;5000853;28;1103;-91
2021/07/20 00:39:31;;;;;;;;;;;;;;;;;;4998256;28;1527;-92
2021/07/20 00:41:56;;;;;;;;;;;;;;;;;;4982677;28;1076;-91
2021/07/20 00:44:21;;;;;;;;;;;;;;;;;;4998620;28;1300;-92
2021/07/20 00:46:46;;;;;;;;;;;;;;;;;;5001025;28;1122;-91
2021/07/20 00:49:11;;;;;;;;;;;;;;;;;;5000325;28;1527;-92
2021/07/20 00:51:36;;;;;;;;;;;;;;;;;;5002829;28;1911;-91
2021/07/20 00:54:02;;;;;;;;;;;;;;;;;;5003071;28;1293;-92
2021/07/20 00:56:27;;;;;;;;;;;;;;;;;;5000881;28;1559;-91
2021/07/20 00:58:52;;;;;;;;;;;;;;;;;;5001063;28;1333;-90
2021/07/20 01:01:17;;;;;;;;;;;;;;;;;;4998049;28;1321;-89
2021/07/20 01:03:42;;;;;;;;;;;;;;;;;;4997092;28;1574;-89
2021/07/20 01:06:08;;;;;;;;;;;;;;;;;;5001369;28;1312;-90
2021/07/20 01:08:33;;;;;;;;;;;;;;;;;;4987085;28;1268;-89
2021/07/20 01:10:59;;;;;;;;;;;;;;;;;;5006752;28;1947;-90
2021/07/20 01:13:24;;;;;;;;;;;;;;;;;;4985645;28;1464;-88
2021/07/20 01:15:49;;;;;;;;;;;;;;;;;;4986008;28;1210;-89
2021/07/20 01:18:14;;;;;;;;;;;;;;;;;;4983215;28;1484;-89
2021/07/20 01:20:39;;;;;;;;;;;;;;;;;;4987646;28;1201;-89
2021/07/20 01:23:07;;;;;;;;;;;;;;;;;;5000443;28;1492;-89
2021/07/20 01:25:32;;;;;;;;;;;;;;;;;;5004086;28;1503;-89
2021/07/20 01:27:58;;;;;;;;;;;;;;;;;;5001674;28;1400;-91
2021/07/20 01:30:23;;;;;;;;;;;;;;;;;;4986530;28;1167;-89
2021/07/20 01:32:48;;;;;;;;;;;;;;;;;;4985367;28;2018;-89
2021/07/20 01:35:13;;;;;;;;;;;;;;;;;;4986079;28;1577;-89
2021/07/20 01:37:38;;;;;;;;;;;;;;;;;;5002426;28;1526;-89
2021/07/20 01:40:04;;;;;;;;;;;;;;;;;;4985867;28;1632;-90
2021/07/20 01:42:29;;;;;;;;;;;;;;;;;;4984975;28;1637;-89
2021/07/20 01:44:55;;;;;;;;;;;;;;;;;;4984626;28;1222;-89
2021/07/20 01:47:20;;;;;;;;;;;;;;;;;;5002881;28;1448;-90
2021/07/20 01:49:46;;;;;;;;;;;;;;;;;;4985267;28;1635;-90
2021/07/20 01:52:11;;;;;;;;;;;;;;;;;;5001579;28;1993;-89
2021/07/20 01:54:36;;;;;;;;;;;;;;;;;;5008493;28;1637;-91
2021/07/20 01:57:02;;;;;;;;;;;;;;;;;;5001941;28;1397;-89
2021/07/20 01:59:27;;;;;;;;;;;;;;;;;;4985056;28;1194;-89
2021/07/20 02:02:39;;;;;;;;;;;;;;;;;;5001736;28;1455;-89
2021/07/20 02:10:09;;;;;;;;;;;;;;;;;;4984473;28;1628;-91
2021/07/20 02:12:39;;;;;;;;;;;;;;;;;;5001874;28;1914;-91
2021/07/20 02:15:04;;;;;;;;;;;;;;;;;;4984267;28;1079;-91
2021/07/20 02:17:31;;;;;;;;;;;;;;;;;;5001048;28;1324;-91
2021/07/20 02:20:00;;;;;;;;;;;;;;;;;;4984199;28;1604;-91
2021/07/20 02:22:25;;;;;;;;;;;;;;;;;;4984546;28;1347;-91
2021/07/20 02:24:51;;;;;;;;;;;;;;;;;;5002825;28;1524;-92
2021/07/20 02:27:16;;;;;;;;;;;;;;;;;;4982848;28;1292;-91
2021/07/20 02:29:42;;;;;;;;;;;;;;;;;;4984672;28;1310;-91
2021/07/20 02:32:07;;;;;;;;;;;;;;;;;;4983721;28;1977;-93
2021/07/20 02:34:33;;;;;;;;;;;;;;;;;;4999748;28;1457;-93
2021/07/20 02:36:58;;;;;;;;;;;;;;;;;;4984030;28;1237;-91
2021/07/20 02:39:24;;;;;;;;;;;;;;;;;;5000360;28;1583;-91
2021/07/20 02:41:49;;;;;;;;;;;;;;;;;;4984020;28;1651;-92
2021/07/20 02:44:14;;;;;;;;;;;;;;;;;;4985570;28;1281;-91
2021/07/20 02:46:40;;;;;;;;;;;;;;;;;;4983614;28;1186;-91
2021/07/20 02:49:05;;;;;;;;;;;;;;;;;;4981556;28;1589;-91
2021/07/20 02:51:30;;;;;;;;;;;;;;;;;;4985736;28;1960;-91
2021/07/20 02:53:56;;;;;;;;;;;;;;;;;;4987862;28;1275;-90
2021/07/20 02:56:21;;;;;;;;;;;;;;;;;;4982045;28;1643;-91
2021/07/20 02:58:48;;;;;;;;;;;;;;;;;;4981495;28;1429;-91
2021/07/20 03:01:13;;;;;;;;;;;;;;;;;;5000403;28;1189;-91
2021/07/20 03:03:38;;;;;;;;;;;;;;;;;;4983760;28;1255;-91
2021/07/20 03:06:04;;;;;;;;;;;;;;;;;;4982844;28;1533;-92
2021/07/20 03:08:30;;;;;;;;;;;;;;;;;;4983048;28;1026;-91
2021/07/20 03:10:56;;;;;;;;;;;;;;;;;;4983673;28;1899;-92
2021/07/20 03:13:21;;;;;;;;;;;;;;;;;;4982198;28;1464;-91
2021/07/20 03:15:46;;;;;;;;;;;;;;;;;;4984171;28;1187;-91
2021/07/20 03:18:11;;;;;;;;;;;;;;;;;;4999092;28;1387;-91
2021/07/20 03:20:37;;;;;;;;;;;;;;;;;;4985388;28;1541;-93
2021/07/20 03:23:03;;;;;;;;;;;;;;;;;;4983251;28;1507;-91
2021/07/20 03:25:28;;;;;;;;;;;;;;;;;;5000868;28;1627;-91
2021/07/20 03:27:54;;;;;;;;;;;;;;;;;;4984064;28;1133;-91
2021/07/20 03:30:19;;;;;;;;;;;;;;;;;;5000100;28;1206;-91
2021/07/20 03:32:45;;;;;;;;;;;;;;;;;;4999477;28;1974;-89
2021/07/20 03:35:11;;;;;;;;;;;;;;;;;;4982476;28;1561;-88
2021/07/20 03:37:36;;;;;;;;;;;;;;;;;;4999481;28;1491;-89
2021/07/20 03:40:03;;;;;;;;;;;;;;;;;;4981948;28;1754;-89
2021/07/20 03:42:28;;;;;;;;;;;;;;;;;;4983158;28;1352;-90
2021/07/20 03:44:54;;;;;;;;;;;;;;;;;;4983558;28;1477;-90
2021/07/20 03:47:19;;;;;;;;;;;;;;;;;;4998327;28;1559;-89
2021/07/20 03:49:45;;;;;;;;;;;;;;;;;;4998632;28;1368;-89
2021/07/20 03:52:10;;;;;;;;;;;;;;;;;;4974948;28;1977;-90
2021/07/20 03:54:35;;;;;;;;;;;;;;;;;;4999608;28;1504;-89
2021/07/20 03:57:00;;;;;;;;;;;;;;;;;;4999903;28;1353;-90
2021/07/20 03:59:26;;;;;;;;;;;;;;;;;;4981962;28;1478;-89
2021/07/20 04:01:52;;;;;;;;;;;;;;;;;;4982467;28;1274;-90
2021/07/20 04:04:17;;;;;;;;;;;;;;;;;;4980871;28;1560;-90
2021/07/20 04:06:42;;;;;;;;;;;;;;;;;;4983606;28;1170;-91
2021/07/20 04:09:08;;;;;;;;;;;;;;;;;;5000475;28;1158;-89
2021/07/20 04:11:33;;;;;;;;;;;;;;;;;;4998663;28;1910;-90
2021/07/20 04:13:58;;;;;;;;;;;;;;;;;;5000154;28;1259;-90
2021/07/20 04:16:24;;;;;;;;;;;;;;;;;;4982184;28;1181;-89
2021/07/20 04:18:49;;;;;;;;;;;;;;;;;;4983941;28;1122;-89
2021/07/20 04:21:14;;;;;;;;;;;;;;;;;;4981085;28;1639;-89
2021/07/20 04:23:39;;;;;;;;;;;;;;;;;;5001815;28;1372;-89
2021/07/20 04:26:04;;;;;;;;;;;;;;;;;;4984784;28;1651;-89
2021/07/20 04:28:30;;;;;;;;;;;;;;;;;;4988006;28;1560;-90
2021/07/20 04:30:56;;;;;;;;;;;;;;;;;;4985105;28;1965;-90
2021/07/20 04:33:25;;;;;;;;;;;;;;;;;;4986192;28;1723;-89
2021/07/20 04:35:59;;;;;;;;;;;;;;;;;;5004041;28;1347;-89
2021/07/20 04:38:24;;;;;;;;;;;;;;;;;;4988518;28;1344;-89
2021/07/20 04:40:50;;;;;;;;;;;;;;;;;;4987338;28;1585;-90
2021/07/20 04:43:15;;;;;;;;;;;;;;;;;;4984448;28;1557;-89
2021/07/20 04:45:40;;;;;;;;;;;;;;;;;;5003448;28;1404;-89
2021/07/20 04:48:06;;;;;;;;;;;;;;;;;;5003773;28;1434;-89
2021/07/20 04:50:31;;;;;;;;;;;;;;;;;;5001512;28;1620;-89
2021/07/20 04:52:58;;;;;;;;;;;;;;;;;;4986975;28;1906;-89
2021/07/20 04:55:24;;;;;;;;;;;;;;;;;;5002712;28;1554;-89
2021/07/20 04:57:49;;;;;;;;;;;;;;;;;;4987008;28;1411;-88
2021/07/20 05:00:14;;;;;;;;;;;;;;;;;;4987745;28;1395;-89
2021/07/20 05:02:40;;;;;;;;;;;;;;;;;;4999592;28;1543;-90
2021/07/20 05:05:06;;;;;;;;;;;;;;;;;;4984641;28;1599;-90
2021/07/20 05:07:31;;;;;;;;;;;;;;;;;;5000496;28;1619;-89
2021/07/20 05:09:56;;;;;;;;;;;;;;;;;;5008364;28;1563;-89
2021/07/20 05:12:21;;;;;;;;;;;;;;;;;;5001917;28;1973;-89
2021/07/20 05:14:46;;;;;;;;;;;;;;;;;;4986227;28;1103;-89
2021/07/20 05:17:12;;;;;;;;;;;;;;;;;;4984296;28;1155;-90
2021/07/20 05:19:37;;;;;;;;;;;;;;;;;;4983474;28;1688;-89
2021/07/20 05:22:03;;;;;;;;;;;;;;;;;;5002132;28;1268;-89
2021/07/20 05:24:28;;;;;;;;;;;;;;;;;;4983423;28;1579;-91
2021/07/20 05:26:53;;;;;;;;;;;;;;;;;;4985070;28;1362;-89
2021/07/20 05:29:21;;;;;;;;;;;;;;;;;;4985400;28;1529;-90
2021/07/20 05:31:47;;;;;;;;;;;;;;;;;;4986072;28;1968;-90
2021/07/20 05:34:15;;;;;;;;;;;;;;;;;;4984069;28;1632;-90
2021/07/20 05:36:40;;;;;;;;;;;;;;;;;;4984826;28;1473;-89
2021/07/20 05:39:06;;;;;;;;;;;;;;;;;;5003874;28;1185;-89
2021/07/20 05:41:31;;;;;;;;;;;;;;;;;;4984163;28;1612;-90
2021/07/20 05:43:56;;;;;;;;;;;;;;;;;;5001656;28;1340;-91
2021/07/20 05:46:21;;;;;;;;;;;;;;;;;;4985214;28;1130;-92
2021/07/20 05:48:46;;;;;;;;;;;;;;;;;;5001387;28;1539;-91
2021/07/20 05:51:12;;;;;;;;;;;;;;;;;;4984845;28;1895;-92
2021/07/20 05:53:37;;;;;;;;;;;;;;;;;;4984787;28;1323;-91
2021/07/20 05:56:03;;;;;;;;;;;;;;;;;;4982836;28;1481;-91
2021/07/20 05:58:28;;;;;;;;;;;;;;;;;;4999773;28;1531;-92
2021/07/20 06:00:53;;;;;;;;;;;;;;;;;;4985094;28;979;-91
2021/07/20 06:03:19;;;;;;;;;;;;;;;;;;4983389;28;1622;-92
2021/07/20 06:05:45;;;;;;;;;;;;;;;;;;5001980;28;1018;-92
2021/07/20 06:08:14;;;;;;;;;;;;;;;;;;4988666;28;1425;-91
2021/07/20 06:10:40;;;;;;;;;;;;;;;;;;4984369;28;1592;-89
2021/07/20 06:13:05;;;;;;;;;;;;;;;;;;4980303;28;1907;-89
2021/07/20 06:15:30;;;;;;;;;;;;;;;;;;4985312;28;1119;-90
2021/07/20 06:17:57;;;;;;;;;;;;;;;;;;5001617;28;1178;-90
2021/07/20 06:20:22;;;;;;;;;;;;;;;;;;5004853;28;1447;-87
2021/07/20 06:22:49;;;;;;;;;;;;;;;;;;5002491;28;1603;-86
2021/07/20 06:25:15;;;;;;;;;;;;;;;;;;4985497;28;1680;-87
2021/07/20 06:27:40;;;;;;;;;;;;;;;;;;4986268;28;1181;-87
2021/07/20 06:30:05;;;;;;;;;;;;;;;;;;4990373;28;1469;-85
2021/07/20 06:32:31;;;;;;;;;;;;;;;;;;4986777;28;1907;-87
2021/07/20 06:34:56;;;;;;;;;;;;;;;;;;5001464;28;1504;-86
2021/07/20 06:37:21;;;;;;;;;;;;;;;;;;4986361;28;1178;-87
2021/07/20 06:39:47;;;;;;;;;;;;;;;;;;4982465;28;1553;-87
2021/07/20 06:42:12;;;;;;;;;;;;;;;;;;4987333;28;1369;-88
2021/07/20 06:44:37;;;;;;;;;;;;;;;;;;4982807;28;1313;-87
2021/07/20 06:47:03;;;;;;;;;;;;;;;;;;5001838;28;1493;-87
2021/07/20 06:49:28;;;;;;;;;;;;;;;;;;5000854;28;1520;-87
2021/07/20 06:51:53;;;;;;;;;;;;;;;;;;4986170;28;1977;-88
2021/07/20 06:54:18;;;;;;;;;;;;;;;;;;5002154;28;1530;-87
2021/07/20 06:56:50;;;;;;;;;;;;;;;;;;4984973;28;1767;-86
2021/07/20 06:59:15;;;;;;;;;;;;;;;;;;5007101;28;1523;-86
2021/07/20 07:01:41;;;;;;;;;;;;;;;;;;4984293;28;1194;-87
2021/07/20 07:04:24;;;;;;;;;;;;;;;;;;5000368;28;1587;-87
2021/07/20 07:06:50;;;;;;;;;;;;;;;;;;5004903;28;1154;-87
2021/07/20 07:09:15;;;;;;;;;;;;;;;;;;4985537;28;1523;-87
2021/07/20 07:11:41;;;;;;;;;;;;;;;;;;4967058;28;1919;-86
2021/07/20 07:14:06;;;;;;;;;;;;;;;;;;5003252;28;1515;-87
2021/07/20 07:16:32;;;;;;;;;;;;;;;;;;4986914;28;1229;-88
2021/07/20 07:18:57;;;;;;;;;;;;;;;;;;4999421;28;1620;-87
2021/07/20 07:21:22;;;;;;;;;;;;;;;;;;5004124;28;1197;-87
2021/07/20 07:23:50;;;;;;;;;;;;;;;;;;5003006;28;1440;-87
2021/07/20 07:26:15;;;;;;;;;;;;;;;;;;4967784;28;1689;-88
2021/07/20 07:28:43;;;;;;;;;;;;;;;;;;4989535;28;1409;-87
2021/07/20 07:31:12;;;;;;;;;;;;;;;;;;4985389;28;1910;-87
2021/07/20 07:33:37;;;;;;;;;;;;;;;;;;5002394;28;1567;-87
2021/07/20 07:36:02;;;;;;;;;;;;;;;;;;5004109;28;1003;-87
2021/07/20 07:38:27;;;;;;;;;;;;;;;;;;5002115;28;1431;-87
2021/07/20 07:40:53;;;;;;;;;;;;;;;;;;5002068;28;1583;-87
2021/07/20 07:43:18;;;;;;;;;;;;;;;;;;4983461;28;1519;-86
2021/07/20 07:45:44;;;;;;;;;;;;;;;;;;4987355;28;1234;-87
2021/07/20 07:48:10;;;;;;;;;;;;;;;;;;4983374;28;1600;-86
2021/07/20 07:50:36;;;;;;;;;;;;;;;;;;5003935;28;1529;-87
2021/07/20 07:53:01;;;;;;;;;;;;;;;;;;4983833;28;1910;-87
2021/07/20 07:55:26;;;;;;;;;;;;;;;;;;5001950;28;1591;-88
2021/07/20 07:57:51;;;;;;;;;;;;;;;;;;4988541;28;1364;-86
2021/07/20 08:00:16;;;;;;;;;;;;;;;;;;4982298;28;1273;-87
2021/07/20 08:02:43;;;;;;;;;;;;;;;;;;5001485;28;1579;-86
2021/07/20 08:05:08;;;;;;;;;;;;;;;;;;5002207;28;1428;-87
2021/07/20 08:07:33;;;;;;;;;;;;;;;;;;4985384;28;1469;-87
2021/07/20 08:09:58;;;;;;;;;;;;;;;;;;4983328;28;1584;-87
2021/07/20 08:12:24;;;;;;;;;;;;;;;;;;5002263;28;1914;-87
2021/07/20 08:14:49;;;;;;;;;;;;;;;;;;4985016;28;1361;-87
2021/07/20 08:17:14;;;;;;;;;;;;;;;;;;5001259;28;1543;-86
2021/07/20 08:19:40;;;;;;;;;;;;;;;;;;4983112;28;1348;-87
2021/07/20 08:22:09;;;;;;;;;;;;;;;;;;5002243;28;1292;-86
2021/07/20 08:24:35;;;;;;;;;;;;;;;;;;5000642;28;1566;-88
2021/07/20 08:27:02;;;;;;;;;;;;;;;;;;4990755;28;1186;-86
2021/07/20 08:29:34;;;;;;;;;;;;;;;;;;4983200;28;1532;-86
2021/07/20 08:32:02;;;;;;;;;;;;;;;;;;4983082;28;1902;-86
2021/07/20 08:34:27;;;;;;;;;;;;;;;;;;4999776;28;1614;-87
2021/07/20 08:36:53;;;;;;;;;;;;;;;;;;4985707;28;1110;-87
2021/07/20 08:39:19;;;;;;;;;;;;;;;;;;4984886;28;1150;-87
2021/07/20 08:41:59;;;;;;;;;;;;;;;;;;4984542;28;1748;-87
2021/07/20 08:44:44;;;;;;;;;;;;;;;;;;5002011;28;1249;-87
2021/07/20 08:47:09;;;;;;;;;;;;;;;;;;5001955;28;1436;-88
2021/07/20 08:49:34;;;;;;;;;;;;;;;;;;5001132;28;1574;-87
2021/07/20 08:52:01;;;;;;;;;;;;;;;;;;5000573;28;1968;-86
2021/07/20 08:54:28;;;;;;;;;;;;;;;;;;5006005;28;1409;-85
2021/07/20 08:56:53;;;;;;;;;;;;;;;;;;5000577;28;1436;-87
2021/07/20 08:59:27;;;;;;;;;;;;;;;;;;4983704;28;1401;-87
2021/07/20 09:01:56;;;;;;;;;;;;;;;;;;4991190;28;1107;-85
2021/07/20 09:04:22;;;;;;;;;;;;;;;;;;5006685;28;1315;-86
2021/07/20 09:06:48;;;;;;;;;;;;;;;;;;5023318;28;1122;-87
2021/07/20 09:09:24;;;;;;;;;;;;;;;;;;4984549;28;1123;-88
2021/07/20 09:11:57;;;;;;;;;;;;;;;;;;4971282;28;1920;-87
2021/07/20 09:14:36;;;;;;;;;;;;;;;;;;4986587;28;1458;-87
2021/07/20 09:17:16;;;;;;;;;;;;;;;;;;4986303;28;1644;-87
2021/07/20 09:19:46;;;;;;;;;;;;;;;;;;5004913;28;1075;-87
2021/07/20 09:22:13;;;;;;;;;;;;;;;;;;4985105;28;1281;-87
2021/07/20 09:24:44;;;;;;;;;;;;;;;;;;4991605;28;1584;-86
2021/07/20 09:27:19;;;;;;;;;;;;;;;;;;4987342;28;1476;-86
2021/07/20 09:29:44;;;;;;;;;;;;;;;;;;4988594;28;1215;-87
2021/07/20 09:32:40;;;;;;;;;;;;;;;;;;4984107;28;1914;-87
2021/07/20 09:35:10;;;;;;;;;;;;;;;;;;4981716;28;1494;-87
2021/07/20 09:37:40;;;;;;;;;;;;;;;;;;4988228;28;1405;-87
2021/07/20 09:40:11;;;;;;;;;;;;;;;;;;4986036;28;1577;-87
2021/07/20 09:42:43;;;;;;;;;;;;;;;;;;5002107;28;2002;-88
2021/07/20 09:45:08;;;;;;;;;;;;;;;;;;5001393;28;1510;-86
2021/07/20 09:47:53;;;;;;;;;;;;;;;;;;5004554;28;1200;-87
2021/07/20 09:50:18;;;;;;;;;;;;;;;;;;5001067;28;1587;-87
2021/07/20 09:52:47;;;;;;;;;;;;;;;;;;4992848;28;1907;-87
2021/07/20 09:55:19;;;;;;;;;;;;;;;;;;5002671;28;1586;-86
2021/07/20 09:57:45;;;;;;;;;;;;;;;;;;5003770;28;1134;-87
2021/07/20 10:00:21;;;;;;;;;;;;;;;;;;5003279;28;1565;-87
2021/07/20 10:02:46;;;;;;;;;;;;;;;;;;5003421;28;1288;-86
2021/07/20 10:05:12;;;;;;;;;;;;;;;;;;5001210;28;1642;-86
2021/07/20 10:07:50;;;;;;;;;;;;;;;;;;5005056;28;1158;-86
2021/07/20 10:10:16;;;;;;;;;;;;;;;;;;4986317;28;1509;-88
2021/07/20 10:12:51;;;;;;;;;;;;;;;;;;4984440;28;1918;-87
2021/07/20 10:15:16;;;;;;;;;;;;;;;;;;5003571;28;1181;-86
2021/07/20 10:17:56;;;;;;;;;;;;;;;;;;4985857;28;1175;-87
2021/07/20 10:20:22;;;;;;;;;;;;;;;;;;4985738;28;1655;-87
2021/07/20 10:22:53;;;;;;;;;;;;;;;;;;5006827;28;1328;-87
2021/07/20 10:25:20;;;;;;;;;;;;;;;;;;5002081;28;1552;-86
2021/07/20 10:27:46;;;;;;;;;;;;;;;;;;4986320;28;2083;-86
2021/07/20 10:30:12;;;;;;;;;;;;;;;;;;4986112;28;1293;-86
2021/07/20 10:32:40;;;;;;;;;;;;;;;;;;4984549;28;1883;-86
2021/07/20 10:35:06;;;;;;;;;;;;;;;;;;5004229;28;1154;-86
2021/07/20 10:37:32;;;;;;;;;;;;;;;;;;5001934;28;1236;-86
2021/07/20 10:39:59;;;;;;;;;;;;;;;;;;4984746;28;1647;-87
2021/07/20 10:42:31;;;;;;;;;;;;;;;;;;4985648;28;1408;-87
2021/07/20 10:45:04;;;;;;;;;;;;;;;;;;4986358;28;1039;-87
2021/07/20 10:47:37;;;;;;;;;;;;;;;;;;5002972;28;1409;-87
2021/07/20 10:50:05;;;;;;;;;;;;;;;;;;4990859;28;1600;-87
2021/07/20 10:52:49;;;;;;;;;;;;;;;;;;4999357;28;1906;-86
2021/07/20 10:55:29;;;;;;;;;;;;;;;;;;5001313;28;1540;-87
2021/07/20 10:57:57;;;;;;;;;;;;;;;;;;4984486;28;1313;-87
2021/07/20 11:00:22;;;;;;;;;;;;;;;;;;4985930;28;1092;-87
2021/07/20 11:02:47;;;;;;;;;;;;;;;;;;4999905;28;1586;-86
2021/07/20 11:05:12;;;;;;;;;;;;;;;;;;5002661;28;1027;-87
2021/07/20 11:07:47;;;;;;;;;;;;;;;;;;4984065;28;1336;-86
2021/07/20 11:10:19;;;;;;;;;;;;;;;;;;5002803;28;1583;-87
2021/07/20 11:12:45;;;;;;;;;;;;;;;;;;4983263;28;1977;-87
2021/07/20 11:15:10;;;;;;;;;;;;;;;;;;4985853;28;1186;-87
2021/07/20 11:17:37;;;;;;;;;;;;;;;;;;4984432;28;1590;-87
2021/07/20 11:20:05;;;;;;;;;;;;;;;;;;5008734;28;1098;-87
2021/07/20 11:22:31;;;;;;;;;;;;;;;;;;5001672;28;1630;-87
2021/07/20 11:24:56;;;;;;;;;;;;;;;;;;5001252;28;1562;-86
2021/07/20 11:27:22;;;;;;;;;;;;;;;;;;4984101;28;1445;-87
2021/07/20 11:29:47;;;;;;;;;;;;;;;;;;4984812;28;1199;-87
2021/07/20 11:32:14;;;;;;;;;;;;;;;;;;4981816;28;1981;-86
2021/07/20 11:34:40;;;;;;;;;;;;;;;;;;4984834;28;1249;-87
2021/07/20 11:37:09;;;;;;;;;;;;;;;;;;5000287;28;1436;-86
2021/07/20 11:39:35;;;;;;;;;;;;;;;;;;4983987;28;1686;-87
2021/07/20 11:42:03;;;;;;;;;;;;;;;;;;4984038;28;1512;-87
2021/07/20 11:44:45;;;;;;;;;;;;;;;;;;5001943;28;1389;-86
2021/07/20 11:47:27;;;;;;;;;;;;;;;;;;4983710;28;1075;-86
2021/07/20 11:49:59;;;;;;;;;;;;;;;;;;4984618;28;1639;-87
2021/07/20 11:52:25;;;;;;;;;;;;;;;;;;5002081;28;1899;-86
2021/07/20 11:54:53;;;;;;;;;;;;;;;;;;4983371;28;1695;-87
2021/07/20 11:57:33;;;;;;;;;;;;;;;;;;4983663;28;1488;-87
2021/07/20 12:00:07;;;;;;;;;;;;;;;;;;4999760;28;1127;-87
2021/07/20 12:02:46;;;;;;;;;;;;;;;;;;4999922;28;1402;-86
2021/07/20 12:05:30;;;;;;;;;;;;;;;;;;5001322;28;1673;-87
2021/07/20 12:08:01;;;;;;;;;;;;;;;;;;4982567;28;1476;-87
2021/07/20 12:10:35;;;;;;;;;;;;;;;;;;5000912;28;1567;-87
2021/07/20 12:13:03;;;;;;;;;;;;;;;;;;4982408;28;1915;-86
2021/07/20 12:15:28;;;;;;;;;;;;;;;;;;5002364;28;1098;-87
2021/07/20 12:17:54;;;;;;;;;;;;;;;;;;5005864;28;1547;-86
2021/07/20 12:20:20;;;;;;;;;;;;;;;;;;4982927;28;1250;-86
2021/07/20 12:22:47;;;;;;;;;;;;;;;;;;4983289;28;1261;-87
2021/07/20 12:25:12;;;;;;;;;;;;;;;;;;4982897;28;1556;-88
2021/07/20 12:27:37;;;;;;;;;;;;;;;;;;5000927;28;1099;-86
2021/07/20 12:30:13;;;;;;;;;;;;;;;;;;4999204;28;1162;-86
2021/07/20 12:32:38;;;;;;;;;;;;;;;;;;5000238;28;1902;-86
2021/07/20 12:35:04;;;;;;;;;;;;;;;;;;4999784;28;1571;-86
2021/07/20 12:37:29;;;;;;;;;;;;;;;;;;4984825;28;1158;-87
2021/07/20 12:39:57;;;;;;;;;;;;;;;;;;4999643;28;1534;-88
2021/07/20 12:42:23;;;;;;;;;;;;;;;;;;4983677;28;1263;-88
2021/07/20 12:45:20;;;;;;;;;;;;;;;;;;4985778;28;1375;-88
2021/07/20 12:47:46;;;;;;;;;;;;;;;;;;4952845;28;1579;-87
2021/07/20 12:50:12;;;;;;;;;;;;;;;;;;5003793;28;1439;-89
2021/07/20 12:52:38;;;;;;;;;;;;;;;;;;4988481;28;1919;-89
2021/07/20 12:55:07;;;;;;;;;;;;;;;;;;4985950;28;1588;-89
2021/07/20 12:57:32;;;;;;;;;;;;;;;;;;5006941;28;1283;-88
2021/07/20 12:59:58;;;;;;;;;;;;;;;;;;4985819;28;1055;-88
2021/07/20 13:02:23;;;;;;;;;;;;;;;;;;4988364;28;1562;-88
2021/07/20 13:04:49;;;;;;;;;;;;;;;;;;4987765;28;1600;-88
2021/07/20 13:07:15;;;;;;;;;;;;;;;;;;5006169;28;1118;-89
2021/07/20 13:09:40;;;;;;;;;;;;;;;;;;5001576;28;1547;-89
2021/07/20 13:12:05;;;;;;;;;;;;;;;;;;4987053;28;1974;-88
2021/07/20 13:14:31;;;;;;;;;;;;;;;;;;5010470;28;1566;-88
2021/07/20 13:16:56;;;;;;;;;;;;;;;;;;5000378;28;1559;-89
2021/07/20 13:19:21;;;;;;;;;;;;;;;;;;4988824;28;1494;-87
2021/07/20 13:21:47;;;;;;;;;;;;;;;;;;5005365;28;1189;-88
2021/07/20 13:24:12;;;;;;;;;;;;;;;;;;5004764;28;1595;-88
2021/07/20 13:26:37;;;;;;;;;;;;;;;;;;5002767;28;1752;-88
2021/07/20 13:29:04;;;;;;;;;;;;;;;;;;5006168;28;1456;-88
2021/07/20 13:31:30;;;;;;;;;;;;;;;;;;5005081;28;1894;-89
2021/07/20 13:33:55;;;;;;;;;;;;;;;;;;4998529;28;1610;-88
2021/07/20 13:36:20;;;;;;;;;;;;;;;;;;4987130;28;1111;-87
2021/07/20 13:38:46;;;;;;;;;;;;;;;;;;5006815;28;1029;-89
2021/07/20 13:41:11;;;;;;;;;;;;;;;;;;4986550;28;1588;-88
2021/07/20 13:43:36;;;;;;;;;;;;;;;;;;4985856;28;1318;-89
2021/07/20 13:46:02;;;;;;;;;;;;;;;;;;4979220;28;1549;-88
2021/07/20 13:48:27;;;;;;;;;;;;;;;;;;5005905;28;1129;-88
2021/07/20 13:50:58;;;;;;;;;;;;;;;;;;5004382;28;1196;-89
2021/07/20 13:53:24;;;;;;;;;;;;;;;;;;4987371;28;1960;-88
2021/07/20 13:56:01;;;;;;;;;;;;;;;;;;4984962;28;1671;-89
2021/07/20 13:58:27;;;;;;;;;;;;;;;;;;4988660;28;1269;-89
2021/07/20 14:00:52;;;;;;;;;;;;;;;;;;4985923;28;1217;-88
2021/07/20 14:03:17;;;;;;;;;;;;;;;;;;4986943;28;1568;-88
2021/07/20 14:05:42;;;;;;;;;;;;;;;;;;5006862;28;1996;-87
2021/07/20 14:08:08;;;;;;;;;;;;;;;;;;5004211;28;1613;-88
2021/07/20 14:10:33;;;;;;;;;;;;;;;;;;4985879;28;1624;-88
2021/07/20 14:12:58;;;;;;;;;;;;;;;;;;4984381;28;1970;-89
2021/07/20 14:15:27;;;;;;;;;;;;;;;;;;5000672;28;1435;-88
2021/07/20 14:17:53;;;;;;;;;;;;;;;;;;4985406;28;1529;-87
2021/07/20 14:20:18;;;;;;;;;;;;;;;;;;4986644;28;1179;-88
2021/07/20 14:22:43;;;;;;;;;;;;;;;;;;5003369;28;1335;-88
2021/07/20 14:25:09;;;;;;;;;;;;;;;;;;5003402;28;1661;-88
2021/07/20 14:27:34;;;;;;;;;;;;;;;;;;5001227;28;1493;-88
2021/07/20 14:29:59;;;;;;;;;;;;;;;;;;5004544;28;971;-88
2021/07/20 14:32:25;;;;;;;;;;;;;;;;;;5004656;28;1898;-88
2021/07/20 14:34:54;;;;;;;;;;;;;;;;;;4991295;28;1460;-88
2021/07/20 14:37:32;;;;;;;;;;;;;;;;;;4984547;28;1602;-88
2021/07/20 14:39:57;;;;;;;;;;;;;;;;;;5000668;28;1527;-87
2021/07/20 14:42:25;;;;;;;;;;;;;;;;;;5004653;28;1383;-89
2021/07/20 14:44:50;;;;;;;;;;;;;;;;;;5002162;28;1655;-89
2021/07/20 14:47:31;;;;;;;;;;;;;;;;;;5003725;28;1192;-88
2021/07/20 14:49:59;;;;;;;;;;;;;;;;;;5002989;28;1580;-89
2021/07/20 14:52:24;;;;;;;;;;;;;;;;;;5000822;28;1949;-88
2021/07/20 14:54:51;;;;;;;;;;;;;;;;;;4981564;28;1615;-88
2021/07/20 14:57:30;;;;;;;;;;;;;;;;;;5003364;28;1412;-88
2021/07/20 14:59:55;;;;;;;;;;;;;;;;;;5002960;28;1110;-89
2021/07/20 15:02:33;;;;;;;;;;;;;;;;;;5001759;28;1489;-88
2021/07/20 15:05:14;;;;;;;;;;;;;;;;;;4989202;28;1150;-88
2021/07/20 15:07:39;;;;;;;;;;;;;;;;;;5000853;28;1372;-88
2021/07/20 15:10:11;;;;;;;;;;;;;;;;;;5003522;28;1654;-88
2021/07/20 15:12:36;;;;;;;;;;;;;;;;;;5001293;28;1902;-89
2021/07/20 15:15:03;;;;;;;;;;;;;;;;;;4986030;28;1119;-88
2021/07/20 15:17:28;;;;;;;;;;;;;;;;;;4985762;28;1358;-88
2021/07/20 15:19:53;;;;;;;;;;;;;;;;;;4983760;28;1620;-88
2021/07/20 15:22:20;;;;;;;;;;;;;;;;;;4984897;28;1360;-89
2021/07/20 15:24:48;;;;;;;;;;;;;;;;;;5000201;28;1632;-88
2021/07/20 15:27:14;;;;;;;;;;;;;;;;;;5002575;28;1209;-88
2021/07/20 15:29:40;;;;;;;;;;;;;;;;;;5002756;28;1229;-88
2021/07/20 15:32:06;;;;;;;;;;;;;;;;;;4986228;28;1954;-88
2021/07/20 15:34:31;;;;;;;;;;;;;;;;;;4982679;28;1884;-88
2021/07/20 15:37:19;;;;;;;;;;;;;;;;;;4984639;28;1166;-88
2021/07/20 15:39:45;;;;;;;;;;;;;;;;;;5000885;28;1578;-89
2021/07/20 15:42:11;;;;;;;;;;;;;;;;;;5002505;28;1198;-87
2021/07/20 15:44:36;;;;;;;;;;;;;;;;;;4986377;28;1396;-89
2021/07/20 15:47:01;;;;;;;;;;;;;;;;;;5003600;28;1174;-88
2021/07/20 15:49:26;;;;;;;;;;;;;;;;;;4999462;28;1713;-89
2021/07/20 15:51:52;;;;;;;;;;;;;;;;;;5003501;28;1899;-89
2021/07/20 15:54:18;;;;;;;;;;;;;;;;;;5002022;28;1269;-87
2021/07/20 15:56:43;;;;;;;;;;;;;;;;;;4986050;28;1505;-89
2021/07/20 15:59:08;;;;;;;;;;;;;;;;;;4983628;28;1538;-89
2021/07/20 16:01:33;;;;;;;;;;;;;;;;;;4984886;28;1270;-88
2021/07/20 16:04:00;;;;;;;;;;;;;;;;;;5001064;28;1582;-88
2021/07/20 16:06:25;;;;;;;;;;;;;;;;;;5004398;28;1098;-89
2021/07/20 16:08:51;;;;;;;;;;;;;;;;;;4983585;28;1389;-88
2021/07/20 16:11:16;;;;;;;;;;;;;;;;;;5000436;28;1910;-88
2021/07/20 16:13:51;;;;;;;;;;;;;;;;;;5001454;28;1397;-88
2021/07/20 16:16:17;;;;;;;;;;;;;;;;;;5002892;28;1198;-88
2021/07/20 16:18:45;;;;;;;;;;;;;;;;;;4999648;28;1512;-87
2021/07/20 16:21:11;;;;;;;;;;;;;;;;;;5002969;28;1122;-88
2021/07/20 16:23:36;;;;;;;;;;;;;;;;;;5003225;28;1355;-89
2021/07/20 16:26:05;;;;;;;;;;;;;;;;;;5002606;28;1595;-88
2021/07/20 16:28:30;;;;;;;;;;;;;;;;;;5002144;28;1361;-88
2021/07/20 16:30:57;;;;;;;;;;;;;;;;;;4984445;28;1149;-88
2021/07/20 16:33:26;;;;;;;;;;;;;;;;;;5001087;28;1978;-89
2021/07/20 16:35:51;;;;;;;;;;;;;;;;;;5001027;28;1547;-89
2021/07/20 16:38:20;;;;;;;;;;;;;;;;;;5001136;28;1603;-88
2021/07/20 16:40:46;;;;;;;;;;;;;;;;;;4983485;28;1604;-88
2021/07/20 16:43:12;;;;;;;;;;;;;;;;;;5001549;28;1269;-89
2021/07/20 16:45:40;;;;;;;;;;;;;;;;;;5001455;28;1606;-89
2021/07/20 16:48:05;;;;;;;;;;;;;;;;;;5000068;28;1547;-88
2021/07/20 16:50:31;;;;;;;;;;;;;;;;;;5000804;28;1219;-88
2021/07/20 16:52:56;;;;;;;;;;;;;;;;;;5001784;28;1982;-88
2021/07/20 16:55:23;;;;;;;;;;;;;;;;;;4983157;28;1643;-88
2021/07/20 16:57:48;;;;;;;;;;;;;;;;;;4984456;28;1381;-88
2021/07/20 17:00:14;;;;;;;;;;;;;;;;;;5003009;28;1142;-88
2021/07/20 17:02:39;;;;;;;;;;;;;;;;;;4983700;28;1532;-88
2021/07/20 17:05:05;;;;;;;;;;;;;;;;;;5002542;28;1575;-88
2021/07/20 17:07:30;;;;;;;;;;;;;;;;;;5001133;28;1523;-88